Time;durP1;ratioP1;P1;durP2;ratioP2;P2;SDS_P1;SDS_P2;PMS_P1;PMS_P2;Temp;Humidity;BMP_temperature;BMP_pressure;BME280_temperature;BME280_humidity;BME280_pressure;Samples;Min_cycle;Max_cycle;Signal;HPM_P1;HPM_P2
2023/10/21 00:01:18;;;;;;;20.00;4.60;;;;;;;22.50;50.04;94535.16;108497;1276;22552;-79
2023/10/21 00:03:49;;;;;;;19.60;4.10;;;;;;;22.49;50.11;94550.16;108539;1276;22563;-79
2023/10/21 00:06:19;;;;;;;23.10;5.60;;;;;;;22.41;50.42;94553.52;108505;1275;22546;-79
2023/10/21 00:08:50;;;;;;;18.00;3.80;;;;;;;22.30;50.80;94552.80;108518;1269;22559;-79
2023/10/21 00:11:21;;;;;;;16.60;3.60;;;;;;;22.22;50.89;94560.27;108527;1276;22520;-79
2023/10/21 00:13:52;;;;;;;16.70;4.10;;;;;;;22.19;50.95;94558.92;108541;1269;22536;-79
2023/10/21 00:16:23;;;;;;;17.20;5.20;;;;;;;22.19;50.94;94569.87;108543;1272;25416;-79
2023/10/21 00:18:53;;;;;;;16.60;4.80;;;;;;;22.16;51.22;94571.98;108512;1269;22518;-79
2023/10/21 00:21:24;;;;;;;13.10;3.70;;;;;;;22.08;51.44;94580.16;108510;1276;22560;-79
2023/10/21 00:23:55;;;;;;;15.10;3.80;;;;;;;21.93;51.82;94573.11;108521;1271;22533;-79
2023/10/21 00:26:26;;;;;;;20.30;4.00;;;;;;;21.91;52.03;94579.23;108535;1276;22614;-79
2023/10/21 00:28:58;;;;;;;17.20;5.00;;;;;;;21.93;51.95;94574.34;108501;1268;24423;-79
2023/10/21 00:31:30;;;;;;;20.30;5.30;;;;;;;21.88;52.21;94579.73;108524;1268;23007;-79
2023/10/21 00:34:03;;;;;;;15.10;3.50;;;;;;;21.80;52.52;94569.86;108494;1268;25367;-79
2023/10/21 00:36:37;;;;;;;17.20;4.40;;;;;;;21.68;52.80;94580.05;108483;1268;22524;-79
2023/10/21 00:39:10;;;;;;;18.00;4.40;;;;;;;21.57;53.02;94586.08;108471;1276;22946;-79
2023/10/21 00:41:43;;;;;;;24.90;5.10;;;;;;;21.49;53.25;94587.83;108541;1276;24165;-80
2023/10/21 00:44:14;;;;;;;15.80;4.90;;;;;;;21.45;53.45;94593.41;108518;1276;22642;-79
2023/10/21 00:46:45;;;;;;;24.20;5.90;;;;;;;21.37;53.88;94591.92;108542;1276;25399;-79
2023/10/21 00:49:16;;;;;;;11.70;3.60;;;;;;;21.30;54.01;94594.52;108484;1275;24103;-79
2023/10/21 00:51:50;;;;;;;17.10;5.20;;;;;;;21.23;54.27;94599.01;108529;1276;22634;-79
2023/10/21 00:54:21;;;;;;;16.80;5.10;;;;;;;21.20;54.52;94606.96;108547;1275;24205;-79
2023/10/21 00:56:52;;;;;;;14.40;4.10;;;;;;;21.21;54.61;94607.95;108527;1276;22544;-79
2023/10/21 00:59:25;;;;;;;13.00;4.40;;;;;;;21.21;54.68;94612.17;108546;1276;22539;-79
2023/10/21 01:01:55;;;;;;;21.40;5.70;;;;;;;21.25;54.72;94603.79;108526;1268;25241;-79
2023/10/21 01:04:27;;;;;;;20.50;4.60;;;;;;;21.29;54.57;94618.02;108550;1275;22560;-79
2023/10/21 01:06:59;;;;;;;15.90;3.70;;;;;;;21.33;54.72;94619.23;108516;1276;22573;-79
2023/10/21 01:09:33;;;;;;;20.20;5.50;;;;;;;21.39;54.65;94632.81;108550;1273;22520;-79
2023/10/21 01:12:07;;;;;;;17.80;4.20;;;;;;;21.41;54.68;94626.27;108511;1270;24258;-79
2023/10/21 01:14:38;;;;;;;14.40;4.00;;;;;;;21.48;54.51;94630.37;108582;1269;22665;-79
2023/10/21 01:17:09;;;;;;;19.10;4.50;;;;;;;21.52;54.36;94629.63;108529;1275;22666;-78
2023/10/21 01:19:40;;;;;;;17.80;3.70;;;;;;;21.53;54.37;94632.79;108471;1276;22517;-78
2023/10/21 01:22:11;;;;;;;15.10;4.80;;;;;;;21.55;54.21;94635.80;108482;1276;22517;-78
2023/10/21 01:24:42;;;;;;;16.60;4.80;;;;;;;21.53;54.36;94635.35;108546;1276;22519;-79
2023/10/21 01:27:12;;;;;;;19.10;4.30;;;;;;;21.47;54.25;94629.06;108504;1275;22520;-78
2023/10/21 01:29:43;;;;;;;15.80;4.30;;;;;;;21.56;54.17;94638.02;108521;1276;25426;-78
2023/10/21 01:32:14;;;;;;;13.00;3.70;;;;;;;21.60;53.71;94635.05;108507;1275;23321;-78
2023/10/21 01:34:45;;;;;;;12.20;4.40;;;;;;;21.62;53.97;94631.65;108546;1276;22524;-78
2023/10/21 01:37:20;;;;;;;19.40;4.60;;;;;;;21.51;54.32;94631.49;108457;1276;22785;-78
2023/10/21 01:39:54;;;;;;;15.80;4.60;;;;;;;21.46;54.35;94623.98;108515;1276;22518;-78
2023/10/21 01:42:25;;;;;;;17.50;4.30;;;;;;;21.41;54.47;94620.40;108524;1276;22526;-78
2023/10/21 01:44:57;;;;;;;20.10;4.50;;;;;;;21.35;54.54;94617.59;108520;1276;22543;-78
2023/10/21 01:47:29;;;;;;;16.20;4.80;;;;;;;21.33;54.84;94612.45;108498;1276;23379;-78
2023/10/21 01:50:07;;;;;;;20.60;4.80;;;;;;;21.24;55.00;94610.46;108548;1276;22515;-78
2023/10/21 01:52:39;;;;;;;24.70;5.60;;;;;;;21.18;55.01;94618.90;108515;1276;22522;-78
2023/10/21 01:55:12;;;;;;;19.40;5.20;;;;;;;21.12;55.36;94610.77;108499;1276;22533;-79
2023/10/21 01:57:44;;;;;;;22.40;5.80;;;;;;;21.09;55.48;94631.27;108562;1276;24382;-78
2023/10/21 02:00:18;;;;;;;24.50;5.40;;;;;;;20.95;55.71;94631.35;108577;1273;22506;-79
2023/10/21 02:02:53;;;;;;;16.70;5.10;;;;;;;20.86;56.11;94637.56;108562;1275;25410;-79
2023/10/21 02:05:26;;;;;;;21.80;5.20;;;;;;;20.81;56.14;94638.33;108545;1276;23040;-78
2023/10/21 02:07:57;;;;;;;20.30;5.60;;;;;;;20.75;56.48;94630.83;108525;1276;23609;-78
2023/10/21 02:10:27;;;;;;;18.40;5.10;;;;;;;20.68;56.63;94635.23;108525;1268;23296;-78
2023/10/21 02:12:58;;;;;;;13.90;4.40;;;;;;;20.57;56.98;94628.73;108564;1268;22520;-79
2023/10/21 02:15:30;;;;;;;16.90;4.90;;;;;;;20.47;57.21;94633.48;108533;1276;25400;-78
2023/10/21 02:18:01;;;;;;;19.10;4.90;;;;;;;20.37;57.60;94631.84;108510;1268;25410;-78
2023/10/21 02:20:32;;;;;;;18.20;5.00;;;;;;;20.29;57.69;94628.95;108532;1268;22519;-79
2023/10/21 02:23:03;;;;;;;15.20;4.50;;;;;;;20.19;58.05;94630.67;108522;1273;22537;-79
2023/10/21 02:25:35;;;;;;;18.00;4.90;;;;;;;20.13;58.35;94636.29;108519;1276;22532;-78
2023/10/21 02:28:06;;;;;;;13.90;4.40;;;;;;;20.06;58.47;94642.20;108539;1276;22572;-78
2023/10/21 02:30:39;;;;;;;22.00;5.70;;;;;;;19.94;58.82;94642.08;108522;1276;22554;-78
2023/10/21 02:33:10;;;;;;;18.30;4.30;;;;;;;19.84;59.24;94648.91;108531;1276;22526;-79
2023/10/21 02:35:42;;;;;;;20.30;5.40;;;;;;;19.76;59.49;94646.23;108507;1268;22527;-79
2023/10/21 02:38:13;;;;;;;19.70;4.40;;;;;;;19.71;59.72;94639.86;108531;1271;23353;-78
2023/10/21 02:40:44;;;;;;;20.10;5.50;;;;;;;19.65;59.93;94637.09;108543;1272;22535;-79
2023/10/21 02:43:15;;;;;;;15.80;4.90;;;;;;;19.60;60.31;94642.17;108559;1275;22541;-78
2023/10/21 02:45:46;;;;;;;16.80;4.80;;;;;;;19.54;60.51;94641.75;108520;1276;22632;-79
2023/10/21 02:48:17;;;;;;;20.60;5.90;;;;;;;19.54;60.64;94642.45;108483;1269;26291;-78
2023/10/21 02:50:49;;;;;;;15.70;4.60;;;;;;;19.54;60.90;94639.23;108600;1276;22527;-78
2023/10/21 02:53:20;;;;;;;14.40;4.30;;;;;;;19.55;61.00;94649.91;108528;1276;25461;-78
2023/10/21 02:55:51;;;;;;;18.20;5.50;;;;;;;19.60;61.20;94654.30;108538;1269;22537;-79
2023/10/21 02:58:22;;;;;;;14.00;4.40;;;;;;;19.69;61.16;94669.51;108532;1269;26463;-79
2023/10/21 03:00:54;;;;;;;17.60;4.20;;;;;;;19.77;61.06;94683.73;108541;1275;22545;-79
2023/10/21 03:03:26;;;;;;;17.50;4.10;;;;;;;19.80;61.04;94688.48;108523;1276;22539;-78
2023/10/21 03:05:56;;;;;;;18.60;4.40;;;;;;;19.80;61.11;94690.02;108563;1276;23217;-78
2023/10/21 03:08:27;;;;;;;19.90;6.10;;;;;;;19.87;61.06;94691.88;108510;1276;22536;-79
2023/10/21 03:10:58;;;;;;;18.40;5.00;;;;;;;19.91;61.09;94693.95;108519;1276;22543;-78
2023/10/21 03:13:30;;;;;;;12.30;4.20;;;;;;;20.03;60.90;94690.34;108535;1276;24005;-78
2023/10/21 03:16:05;;;;;;;17.60;4.80;;;;;;;20.12;60.76;94689.48;108524;1269;22527;-78
2023/10/21 03:18:37;;;;;;;16.60;4.90;;;;;;;20.28;60.55;94693.48;108546;1275;22559;-78
2023/10/21 03:21:08;;;;;;;23.50;4.90;;;;;;;20.18;60.47;94716.23;108538;1276;22568;-78
2023/10/21 03:23:39;;;;;;;16.10;3.90;;;;;;;19.97;60.72;94720.92;108529;1276;22550;-78
2023/10/21 03:26:10;;;;;;;15.20;4.30;;;;;;;20.00;60.95;94713.39;108548;1276;22527;-79
2023/10/21 03:28:43;;;;;;;21.60;5.80;;;;;;;20.29;60.79;94703.69;108500;1269;25335;-78
2023/10/21 03:31:17;;;;;;;18.20;3.90;;;;;;;20.59;60.14;94695.11;108562;1276;22515;-78
2023/10/21 03:33:48;;;;;;;15.50;4.60;;;;;;;20.98;58.71;94702.84;108530;1273;22540;-78
2023/10/21 03:36:19;;;;;;;20.60;4.30;;;;;;;21.17;58.02;94697.37;108555;1276;22515;-78
2023/10/21 03:38:50;;;;;;;21.50;4.50;;;;;;;21.48;56.47;94683.06;108505;1269;23525;-79
2023/10/21 03:41:21;;;;;;;16.40;4.20;;;;;;;21.69;56.33;94695.24;108554;1276;22524;-79
2023/10/21 03:43:52;;;;;;;18.80;5.10;;;;;;;21.76;55.67;94687.94;108529;1274;22522;-78
2023/10/21 03:46:23;;;;;;;16.30;4.10;;;;;;;21.80;55.42;94693.00;108535;1275;22530;-79
2023/10/21 03:48:54;;;;;;;15.20;3.70;;;;;;;21.91;54.48;94688.15;108487;1276;27420;-79
2023/10/21 03:51:25;;;;;;;18.10;5.00;;;;;;;22.00;54.48;94692.55;108549;1275;24043;-79
2023/10/21 03:53:56;;;;;;;23.60;6.10;;;;;;;21.92;54.80;94688.37;108539;1275;22636;-78
2023/10/21 03:56:32;;;;;;;19.20;5.30;;;;;;;21.81;55.13;94685.68;108524;1276;23296;-79
2023/10/21 03:59:06;;;;;;;13.90;4.10;;;;;;;21.65;55.53;94690.96;108559;1271;27048;-78
2023/10/21 04:01:37;;;;;;;22.10;5.30;;;;;;;21.45;55.96;94702.56;108538;1276;22528;-78
2023/10/21 04:04:08;;;;;;;17.20;4.80;;;;;;;21.25;56.21;94703.58;108554;1276;25345;-78
2023/10/21 04:06:39;;;;;;;25.90;5.10;;;;;;;21.07;56.77;94695.87;108521;1276;23678;-78
2023/10/21 04:09:11;;;;;;;14.50;4.40;;;;;;;20.92;57.02;94699.16;108513;1270;22573;-78
2023/10/21 04:11:45;;;;;;;17.80;4.40;;;;;;;20.75;57.51;94703.77;108572;1269;22572;-78
2023/10/21 04:14:16;;;;;;;20.00;5.20;;;;;;;20.64;57.80;94696.95;108570;1275;22556;-78
2023/10/21 04:16:46;;;;;;;20.10;5.70;;;;;;;20.61;58.12;94696.03;108518;1276;22538;-78
2023/10/21 04:19:17;;;;;;;14.10;4.20;;;;;;;20.52;58.42;94694.14;108495;1276;22507;-79
2023/10/21 04:21:48;;;;;;;17.10;4.90;;;;;;;20.39;58.64;94703.60;108622;1253;22547;-79
2023/10/21 04:24:19;;;;;;;15.40;4.80;;;;;;;20.27;59.01;94687.23;108617;1276;25346;-78
2023/10/21 04:26:50;;;;;;;20.70;5.30;;;;;;;20.20;59.26;94685.48;108475;1269;24217;-78
2023/10/21 04:29:20;;;;;;;15.80;4.80;;;;;;;20.17;59.43;94680.34;108505;1275;22556;-78
2023/10/21 04:31:52;;;;;;;17.70;4.30;;;;;;;20.10;59.68;94686.93;108521;1276;23861;-78
2023/10/21 04:34:23;;;;;;;12.80;4.40;;;;;;;19.97;59.79;94691.94;108555;1276;22519;-78
2023/10/21 04:36:54;;;;;;;17.80;5.80;;;;;;;19.67;60.30;94687.71;108508;1276;25422;-78
2023/10/21 04:39:25;;;;;;;15.30;4.10;;;;;;;19.42;60.76;94688.03;108486;1276;22577;-78
2023/10/21 04:41:56;;;;;;;21.80;5.40;;;;;;;19.34;61.32;94695.23;108571;1276;22523;-78
2023/10/21 04:44:31;;;;;;;14.90;4.60;;;;;;;19.38;61.67;94704.61;108562;1269;23356;-78
2023/10/21 04:47:07;;;;;;;21.10;4.50;;;;;;;19.45;61.82;94705.40;108509;1275;25239;-77
2023/10/21 04:49:38;;;;;;;19.30;4.70;;;;;;;19.58;61.89;94705.67;108530;1276;22536;-78
2023/10/21 04:52:09;;;;;;;13.20;3.70;;;;;;;19.71;61.66;94711.92;108531;1270;22554;-79
2023/10/21 04:54:40;;;;;;;12.00;3.80;;;;;;;19.89;60.98;94718.00;108552;1268;24344;-78
2023/10/21 04:57:11;;;;;;;12.60;3.80;;;;;;;20.08;60.39;94731.21;108504;1275;23303;-78
2023/10/21 04:59:42;;;;;;;19.70;4.30;;;;;;;20.16;60.12;94731.77;108511;1270;22544;-78
2023/10/21 05:02:13;;;;;;;17.70;4.00;;;;;;;20.12;60.10;94743.90;108543;1275;26569;-78
2023/10/21 05:04:45;;;;;;;14.10;3.60;;;;;;;20.02;60.12;94751.44;108522;1276;22537;-78
2023/10/21 05:07:19;;;;;;;12.10;3.00;;;;;;;20.13;59.73;94758.66;108483;1275;22551;-78
2023/10/21 05:09:50;;;;;;;14.30;3.30;;;;;;;20.33;59.39;94775.50;108577;1269;22543;-78
2023/10/21 05:12:22;;;;;;;15.10;4.50;;;;;;;20.52;58.83;94770.52;108519;1276;22532;-78
2023/10/21 05:14:53;;;;;;;19.90;3.70;;;;;;;20.64;58.68;94788.19;108584;1269;22554;-78
2023/10/21 05:17:24;;;;;;;15.40;4.30;;;;;;;20.56;58.55;94806.73;108512;1275;24275;-78
2023/10/21 05:19:55;;;;;;;18.80;5.10;;;;;;;20.43;58.86;94819.88;108526;1275;22524;-78
2023/10/21 05:22:26;;;;;;;19.00;4.90;;;;;;;20.17;59.30;94846.98;108521;1274;22781;-78
2023/10/21 05:24:57;;;;;;;13.90;4.80;;;;;;;19.90;59.77;94849.46;108519;1254;22524;-78
2023/10/21 05:27:28;;;;;;;19.40;5.40;;;;;;;19.53;60.47;94848.56;108488;1275;26451;-78
2023/10/21 05:29:59;;;;;;;16.60;5.40;;;;;;;19.18;61.35;94846.48;108494;1276;22634;-78
2023/10/21 05:32:31;;;;;;;15.10;4.60;;;;;;;19.05;62.13;94836.66;108479;1276;23341;-78
2023/10/21 05:35:02;;;;;;;15.10;5.60;;;;;;;18.95;62.50;94848.48;108567;1276;22539;-78
2023/10/21 05:37:33;;;;;;;20.30;4.70;;;;;;;18.91;62.99;94854.98;108512;1275;22625;-78
2023/10/21 05:40:05;;;;;;;17.40;5.10;;;;;;;18.87;63.28;94863.34;108526;1276;22531;-78
2023/10/21 05:42:36;;;;;;;18.80;5.10;;;;;;;18.83;63.49;94880.09;108552;1275;22533;-78
2023/10/21 05:45:09;;;;;;;19.20;6.10;;;;;;;18.66;63.51;94883.86;108555;1276;22530;-78
2023/10/21 05:47:40;;;;;;;21.60;5.50;;;;;;;18.50;63.98;94901.12;108475;1275;22531;-78
2023/10/21 05:50:12;;;;;;;15.30;5.30;;;;;;;18.42;64.42;94900.73;108534;1276;22532;-78
2023/10/21 05:52:43;;;;;;;18.10;5.30;;;;;;;18.30;64.70;94894.73;108493;1276;22667;-78
2023/10/21 05:55:14;;;;;;;18.10;4.90;;;;;;;18.19;65.32;94909.35;108492;1276;22522;-78
2023/10/21 05:57:45;;;;;;;24.10;6.00;;;;;;;18.11;65.57;94910.39;108542;1276;22542;-78
2023/10/21 06:00:18;;;;;;;20.20;6.20;;;;;;;18.00;65.97;94904.77;108474;1275;24356;-78
2023/10/21 06:02:49;;;;;;;16.10;5.80;;;;;;;17.93;66.42;94908.67;108514;1276;22532;-78
2023/10/21 06:05:21;;;;;;;19.20;5.40;;;;;;;17.89;66.97;94914.09;108484;1275;22613;-78
2023/10/21 06:07:52;;;;;;;16.70;5.80;;;;;;;17.87;66.93;94926.92;108455;1276;25541;-78
2023/10/21 06:10:23;;;;;;;17.60;6.00;;;;;;;17.87;67.41;94933.56;108522;1263;22647;-78
2023/10/21 06:12:54;;;;;;;18.70;5.60;;;;;;;17.87;67.64;94936.57;108458;1276;22520;-78
2023/10/21 06:15:26;;;;;;;19.00;5.50;;;;;;;17.85;67.81;94939.52;108518;1276;22536;-78
2023/10/21 06:17:57;;;;;;;22.00;4.90;;;;;;;17.83;67.98;94940.27;108506;1276;25264;-77
2023/10/21 06:20:29;;;;;;;18.80;6.20;;;;;;;17.82;68.08;94940.04;108478;1276;25339;-79
2023/10/21 06:23:05;;;;;;;16.00;5.50;;;;;;;17.83;68.45;94955.81;108528;1276;24496;-79
2023/10/21 06:25:36;;;;;;;17.70;6.80;;;;;;;17.70;68.59;94963.92;108550;1275;22557;-78
2023/10/21 06:28:07;;;;;;;17.60;5.70;;;;;;;17.57;69.24;94959.81;108445;1275;22520;-78
2023/10/21 06:30:40;;;;;;;19.40;6.00;;;;;;;17.58;69.71;94960.52;108476;1275;22585;-78
2023/10/21 06:33:12;;;;;;;18.70;5.90;;;;;;;17.59;70.03;94965.58;108519;1276;22974;-78
2023/10/21 06:35:43;;;;;;;17.70;5.50;;;;;;;17.55;70.10;94975.02;108525;1275;22522;-78
2023/10/21 06:38:14;;;;;;;17.50;6.30;;;;;;;17.40;70.18;94978.81;108550;1276;22526;-78
2023/10/21 06:40:45;;;;;;;19.60;5.70;;;;;;;17.31;70.79;94980.41;108504;1276;22523;-78
2023/10/21 06:43:17;;;;;;;19.80;6.30;;;;;;;17.32;71.10;94973.19;108510;1273;22513;-78
2023/10/21 06:45:48;;;;;;;19.50;5.30;;;;;;;17.37;71.28;94971.34;108455;1266;22530;-78
2023/10/21 06:48:19;;;;;;;19.00;5.40;;;;;;;17.42;71.49;94969.73;108485;1270;22523;-80
2023/10/21 06:50:52;;;;;;;18.40;6.10;;;;;;;17.50;71.75;94968.85;108498;1273;22532;-79
2023/10/21 06:53:23;;;;;;;19.10;7.40;;;;;;;17.54;71.95;94971.41;108544;1276;23767;-79
2023/10/21 06:55:54;;;;;;;16.50;5.60;;;;;;;17.56;71.94;94970.66;108474;1268;22521;-79
2023/10/21 06:58:26;;;;;;;20.20;6.10;;;;;;;17.63;72.18;94973.30;108520;1270;23102;-79
2023/10/21 07:00:57;;;;;;;19.20;5.60;;;;;;;17.70;72.25;94977.40;108495;1276;22670;-79
2023/10/21 07:03:29;;;;;;;18.70;6.20;;;;;;;17.77;72.37;94978.88;108451;1276;22517;-79
2023/10/21 07:06:03;;;;;;;16.10;5.00;;;;;;;17.78;72.62;94985.11;108500;1273;23001;-79
2023/10/21 07:08:36;;;;;;;19.50;6.10;;;;;;;17.70;73.27;94994.02;108492;1276;22523;-79
2023/10/21 07:11:07;;;;;;;14.40;5.20;;;;;;;17.69;73.72;95006.17;108473;1273;22531;-79
2023/10/21 07:13:38;;;;;;;18.30;7.40;;;;;;;17.73;74.04;95018.81;108547;1276;25244;-79
2023/10/21 07:16:11;;;;;;;18.50;6.20;;;;;;;17.64;74.47;95029.98;108550;1273;25559;-79
2023/10/21 07:18:42;;;;;;;18.40;5.90;;;;;;;17.53;74.78;95031.27;108511;1276;22553;-79
2023/10/21 07:21:16;;;;;;;17.20;6.30;;;;;;;17.49;75.25;95038.80;108511;1276;26662;-79
2023/10/21 07:23:47;;;;;;;18.70;5.90;;;;;;;17.49;75.83;95041.33;108672;1269;25411;-79
2023/10/21 07:26:19;;;;;;;15.80;5.30;;;;;;;17.57;76.17;95038.22;108533;1276;22531;-80
2023/10/21 07:28:50;;;;;;;21.80;6.50;;;;;;;17.65;76.40;95030.92;108534;1269;24202;-79
2023/10/21 07:31:21;;;;;;;15.50;7.50;;;;;;;17.68;76.64;95032.96;108500;1273;22526;-80
2023/10/21 07:33:54;;;;;;;23.60;7.40;;;;;;;17.70;76.95;95034.07;108554;1276;22520;-79
2023/10/21 07:36:25;;;;;;;19.10;7.00;;;;;;;17.73;77.15;95041.63;108551;1276;24244;-79
2023/10/21 07:38:56;;;;;;;20.10;7.00;;;;;;;17.74;77.43;95047.68;108530;1276;22545;-79
2023/10/21 07:41:28;;;;;;;16.20;6.10;;;;;;;17.75;77.56;95053.15;108524;1276;22531;-80
2023/10/21 07:44:01;;;;;;;19.80;5.30;;;;;;;17.70;77.52;95056.66;108546;1276;22864;-80
2023/10/21 07:46:35;;;;;;;18.80;6.70;;;;;;;17.69;77.80;95075.02;108535;1276;22553;-80
2023/10/21 07:49:08;;;;;;;21.30;7.10;;;;;;;17.62;78.04;95081.11;108486;1276;22611;-80
2023/10/21 07:51:39;;;;;;;19.00;6.90;;;;;;;17.58;78.44;95084.16;108565;1276;22536;-79
2023/10/21 07:54:11;;;;;;;19.00;7.20;;;;;;;17.57;78.61;95080.48;108513;1273;23293;-80
2023/10/21 07:56:45;;;;;;;19.40;7.00;;;;;;;17.55;78.85;95080.23;108528;1273;22559;-80
2023/10/21 07:59:16;;;;;;;20.80;6.80;;;;;;;17.54;78.81;95077.52;108540;1270;22545;-80
2023/10/21 08:01:47;;;;;;;17.10;5.70;;;;;;;17.56;78.86;95089.34;108580;1275;22528;-80
2023/10/21 08:04:18;;;;;;;15.50;5.50;;;;;;;17.55;78.83;95097.60;108666;1276;25388;-79
2023/10/21 08:06:49;;;;;;;20.70;6.20;;;;;;;17.54;78.90;95105.63;108527;1273;22560;-79
2023/10/21 08:09:24;;;;;;;18.10;5.90;;;;;;;17.57;79.12;95108.95;108479;1276;22524;-79
2023/10/21 08:11:56;;;;;;;21.80;6.60;;;;;;;17.62;79.18;95118.09;108574;1275;22535;-78
2023/10/21 08:14:31;;;;;;;22.70;6.40;;;;;;;17.64;79.40;95119.27;108465;1275;24341;-78
2023/10/21 08:17:04;;;;;;;19.70;6.50;;;;;;;17.69;79.59;95126.63;108687;1269;22608;-78
2023/10/21 08:19:35;;;;;;;17.80;6.00;;;;;;;17.78;79.68;95134.20;108601;1276;22524;-78
2023/10/21 08:22:07;;;;;;;18.50;5.70;;;;;;;17.85;79.85;95131.61;108624;1272;22643;-78
2023/10/21 08:24:41;;;;;;;14.40;6.00;;;;;;;17.91;79.97;95136.73;108575;1276;22589;-78
2023/10/21 08:27:15;;;;;;;21.20;6.70;;;;;;;17.99;80.17;95141.02;108408;1276;166483;-78
2023/10/21 08:29:48;;;;;;;20.50;7.60;;;;;;;18.04;80.33;95139.73;108644;1276;22520;-79
2023/10/21 08:32:21;;;;;;;16.40;5.10;;;;;;;18.09;80.10;95149.00;108627;1276;22641;-79
2023/10/21 08:34:51;;;;;;;16.00;5.20;;;;;;;18.23;78.91;95150.27;108620;1275;22664;-79
2023/10/21 08:37:22;;;;;;;12.70;4.50;;;;;;;18.45;78.40;95150.63;108563;1275;25460;-78
2023/10/21 08:39:54;;;;;;;16.90;4.90;;;;;;;18.63;77.38;95153.48;108540;1276;22540;-79
2023/10/21 08:42:26;;;;;;;17.70;4.60;;;;;;;18.88;76.46;95161.46;108458;1268;22528;-79
2023/10/21 08:45:06;;;;;;;15.30;5.10;;;;;;;18.99;75.86;95153.45;108584;1276;22528;-79
2023/10/21 08:47:42;;;;;;;11.80;3.70;;;;;;;19.08;75.22;95152.16;108432;1274;22642;-79
2023/10/21 08:50:17;;;;;;;11.40;3.50;;;;;;;19.18;74.38;95154.27;108620;1273;22529;-79
2023/10/21 08:52:51;;;;;;;9.70;3.50;;;;;;;19.30;73.77;95156.52;108531;1273;22535;-79
2023/10/21 08:55:23;;;;;;;14.90;3.90;;;;;;;19.41;73.10;95165.23;108541;1275;22524;-79
2023/10/21 08:57:55;;;;;;;20.10;4.20;;;;;;;19.49;73.05;95164.40;108511;1276;22533;-79
2023/10/21 09:00:26;;;;;;;11.40;3.60;;;;;;;19.58;72.81;95171.02;108452;1273;22529;-80
2023/10/21 09:02:58;;;;;;;15.70;3.50;;;;;;;19.65;73.11;95166.63;108549;1275;22535;-79
2023/10/21 09:05:34;;;;;;;16.20;4.00;;;;;;;19.71;72.57;95169.84;108575;1276;22521;-79
2023/10/21 09:08:06;;;;;;;9.00;3.10;;;;;;;19.76;71.37;95178.64;108548;1276;22531;-79
2023/10/21 09:10:37;;;;;;;11.20;3.60;;;;;;;19.83;69.85;95181.77;108505;1276;22569;-79
2023/10/21 09:13:16;;;;;;;10.60;3.50;;;;;;;19.95;68.95;95190.39;108426;1276;22646;-79
2023/10/21 09:15:47;;;;;;;10.10;2.60;;;;;;;20.12;68.09;95197.27;108517;1276;22568;-78
2023/10/21 09:18:18;;;;;;;10.30;3.10;;;;;;;20.31;66.31;95195.88;108412;1276;25320;-79
2023/10/21 09:20:52;;;;;;;7.40;2.80;;;;;;;20.49;65.60;95186.86;108502;1276;24286;-79
2023/10/21 09:23:24;;;;;;;9.10;2.40;;;;;;;20.65;65.16;95188.64;108499;1276;22533;-79
2023/10/21 09:25:57;;;;;;;9.30;2.40;;;;;;;20.76;64.66;95191.09;108422;1275;23175;-79
2023/10/21 09:28:30;;;;;;;8.10;2.30;;;;;;;20.81;63.93;95191.17;108498;1276;26371;-79
2023/10/21 09:31:04;;;;;;;7.70;3.10;;;;;;;20.90;63.33;95190.60;108485;1276;22536;-79
2023/10/21 09:33:56;;;;;;;6.80;2.00;;;;;;;20.92;63.25;95187.30;108441;1276;22518;-80
2023/10/21 09:36:27;;;;;;;8.20;2.00;;;;;;;20.84;60.51;95189.88;108595;1274;22557;-79
2023/10/21 09:38:58;;;;;;;7.70;2.00;;;;;;;20.75;60.23;95196.30;108437;1270;22558;-81
2023/10/21 09:41:30;;;;;;;7.60;2.10;;;;;;;20.68;59.21;95202.42;108480;1271;24272;-80
2023/10/21 09:44:04;;;;;;;6.90;2.00;;;;;;;20.67;59.28;95205.04;108502;1271;22529;-80
2023/10/21 09:46:38;;;;;;;8.90;2.90;;;;;;;20.67;58.68;95204.73;108506;1276;22593;-80
2023/10/21 09:49:11;;;;;;;5.50;2.00;;;;;;;20.70;59.05;95202.67;108457;1276;25428;-80
2023/10/21 09:51:53;;;;;;;4.10;1.10;;;;;;;20.69;57.53;95206.05;108422;1276;22566;-80
2023/10/21 09:54:37;;;;;;;5.80;1.50;;;;;;;20.74;56.00;95205.92;108493;1276;22533;-79
2023/10/21 09:57:09;;;;;;;4.70;1.40;;;;;;;20.84;56.22;95224.36;108457;1276;24091;-78
2023/10/21 09:59:41;;;;;;;3.70;1.70;;;;;;;20.94;54.87;95212.95;108432;1276;22533;-80
2023/10/21 10:02:12;;;;;;;8.60;2.10;;;;;;;21.08;54.65;95225.01;108501;1276;22530;-80
2023/10/21 10:04:44;;;;;;;5.10;2.10;;;;;;;21.17;55.11;95234.82;108551;1270;22548;-80
2023/10/21 10:07:17;;;;;;;4.60;1.60;;;;;;;21.22;53.64;95219.89;108487;1276;22514;-79
2023/10/21 10:09:51;;;;;;;4.40;1.20;;;;;;;21.37;53.67;95235.30;108543;1273;22533;-79
2023/10/21 10:12:27;;;;;;;5.60;1.70;;;;;;;21.47;53.57;95237.33;108551;1276;24217;-80
2023/10/21 10:14:58;;;;;;;6.60;2.10;;;;;;;21.62;53.77;95234.20;108436;1269;26415;-80
2023/10/21 10:17:49;;;;;;;7.40;2.10;;;;;;;21.75;53.63;95238.16;108483;1276;22541;-79
2023/10/21 10:20:26;;;;;;;6.00;1.80;;;;;;;21.89;52.77;95232.47;108543;1273;22558;-77
2023/10/21 10:23:03;;;;;;;4.30;1.30;;;;;;;21.98;52.88;95229.62;108522;1276;22524;-80
2023/10/21 10:25:38;;;;;;;10.20;2.30;;;;;;;21.97;52.24;95230.09;108505;1276;22637;-80
2023/10/21 10:28:11;;;;;;;5.40;1.90;;;;;;;21.85;51.62;95241.02;108426;1276;22538;-80
2023/10/21 10:30:45;;;;;;;9.30;2.10;;;;;;;21.73;52.50;95235.92;108439;1276;22541;-79
2023/10/21 10:33:18;;;;;;;6.20;1.50;;;;;;;21.74;52.72;95240.16;108485;1273;24880;-79
2023/10/21 10:35:51;;;;;;;7.00;2.00;;;;;;;21.81;52.58;95244.56;108504;1276;28043;-79
2023/10/21 10:38:28;;;;;;;3.60;1.50;;;;;;;22.01;53.33;95249.21;108462;1276;29601;-79
2023/10/21 10:41:06;;;;;;;6.60;1.70;;;;;;;22.14;53.02;95241.39;108474;1276;22532;-78
2023/10/21 10:43:40;;;;;;;6.10;2.20;;;;;;;22.19;52.67;95241.45;108492;1273;25489;-79
2023/10/21 10:46:16;;;;;;;6.30;1.70;;;;;;;22.20;53.08;95248.55;108500;1276;22551;-78
2023/10/21 10:48:47;;;;;;;8.60;1.70;;;;;;;22.15;52.58;95238.52;108448;1275;26315;-78
2023/10/21 10:51:21;;;;;;;4.40;1.10;;;;;;;22.05;53.38;95241.42;108475;1276;22660;-79
2023/10/21 10:54:06;;;;;;;4.50;1.20;;;;;;;21.97;51.81;95248.83;108503;1276;22918;-79
2023/10/21 10:56:43;;;;;;;10.10;2.00;;;;;;;21.89;52.14;95251.45;108493;1276;22570;-79
2023/10/21 10:59:17;;;;;;;6.80;1.80;;;;;;;21.76;52.81;95253.58;108436;1269;22528;-79
2023/10/21 11:02:00;;;;;;;7.40;1.40;;;;;;;21.63;52.93;95260.63;108410;1276;22547;-79
2023/10/21 11:04:33;;;;;;;7.20;1.50;;;;;;;21.45;52.42;95257.75;108485;1270;22602;-79
2023/10/21 11:07:04;;;;;;;5.40;1.20;;;;;;;21.30;52.53;95254.84;108462;1269;28038;-77
2023/10/21 11:09:36;;;;;;;7.60;2.40;;;;;;;21.21;52.49;95264.86;108320;1276;22546;-79
2023/10/21 11:12:08;;;;;;;5.50;1.90;;;;;;;21.15;53.04;95264.77;108438;1276;24254;-79
2023/10/21 11:14:39;;;;;;;5.80;1.80;;;;;;;21.11;53.68;95262.36;108532;1276;22550;-79
2023/10/21 11:17:10;;;;;;;9.60;3.30;;;;;;;21.06;53.58;95265.48;108460;1270;23338;-78
2023/10/21 11:19:42;;;;;;;8.50;3.00;;;;;;;21.02;53.81;95268.55;108466;1276;22559;-79
2023/10/21 11:22:25;;;;;;;7.20;2.70;;;;;;;21.02;54.28;95266.33;108479;1260;23018;-80
2023/10/21 11:24:56;;;;;;;6.80;1.70;;;;;;;21.01;54.13;95273.17;108492;1276;24322;-79
2023/10/21 11:27:28;;;;;;;11.20;2.20;;;;;;;21.02;53.75;95289.97;108374;1270;22525;-78
2023/10/21 11:30:07;;;;;;;7.20;1.60;;;;;;;21.08;53.94;95293.60;108492;1276;24300;-79
2023/10/21 11:32:39;;;;;;;8.50;2.40;;;;;;;21.11;54.15;95296.39;108449;1266;22525;-77
2023/10/21 11:35:12;;;;;;;3.80;1.30;;;;;;;21.14;53.97;95299.35;108509;1276;25310;-79
2023/10/21 11:37:43;;;;;;;6.10;1.90;;;;;;;21.21;53.51;95311.55;108497;1276;22529;-79
2023/10/21 11:40:15;;;;;;;4.90;1.80;;;;;;;21.41;54.04;95313.27;108502;1276;25178;-79
2023/10/21 11:43:01;;;;;;;7.70;2.10;;;;;;;21.72;54.52;95309.52;108515;1274;22531;-79